createdAt,value
2018-05-06T00:04:00.753Z,11.40
2018-05-06T00:08:03.394Z,11.30
2018-05-06T00:12:06.039Z,11.20
2018-05-06T00:16:09.507Z,11.20
2018-05-06T00:20:12.196Z,11.10
2018-05-06T00:24:14.849Z,11.10
2018-05-06T00:28:17.493Z,11.00
2018-05-06T00:32:20.947Z,10.90
2018-05-06T00:36:23.643Z,10.80
2018-05-06T00:40:26.284Z,10.80
2018-05-06T00:44:28.933Z,10.70
2018-05-06T00:48:31.577Z,10.60
2018-05-06T00:52:34.952Z,10.30
2018-05-06T00:56:37.606Z,10.30
2018-05-06T01:00:40.256Z,10.20
2018-05-06T01:04:43.672Z,10.00
2018-05-06T01:08:47.134Z,10.00
2018-05-06T01:12:49.740Z,9.90
2018-05-06T01:16:52.375Z,9.90
2018-05-06T01:20:55.017Z,9.80
2018-05-06T01:24:59.379Z,9.80
2018-05-06T01:29:02.840Z,9.80
2018-05-06T01:33:05.459Z,9.70
2018-05-06T01:37:08.859Z,9.70
2018-05-06T01:41:11.498Z,9.90
2018-05-06T01:45:14.128Z,9.70
2018-05-06T01:49:16.820Z,9.70
2018-05-06T01:53:19.423Z,9.70
2018-05-06T01:57:22.839Z,9.60
2018-05-06T02:01:26.305Z,9.60
2018-05-06T02:05:28.944Z,9.50
2018-05-06T02:09:31.587Z,9.60
2018-05-06T02:13:34.193Z,9.50
2018-05-06T02:17:37.602Z,9.40
2018-05-06T02:21:41.011Z,9.40
2018-05-06T02:25:44.420Z,9.30
2018-05-06T02:29:47.819Z,9.30
2018-05-06T02:33:51.244Z,9.30
2018-05-06T02:37:53.882Z,9.20
2018-05-06T02:41:56.530Z,9.20
2018-05-06T02:45:59.171Z,9.20
2018-05-06T02:50:01.819Z,9.20
2018-05-06T02:54:04.423Z,9.20
2018-05-06T02:58:07.061Z,9.20
2018-05-06T03:02:10.467Z,9.20
2018-05-06T03:06:13.872Z,9.20
2018-05-06T03:10:17.285Z,9.10
2018-05-06T03:14:20.645Z,9.10
2018-05-06T03:18:23.396Z,9.00
2018-05-06T03:22:26.040Z,9.10
2018-05-06T03:26:28.736Z,9.10
2018-05-06T03:30:31.348Z,9.10
2018-05-06T03:34:34.815Z,9.00
2018-05-06T03:38:37.457Z,9.00
2018-05-06T03:42:40.101Z,9.00
2018-05-06T03:46:42.848Z,9.00
2018-05-06T03:50:45.503Z,8.90
2018-05-06T03:54:48.920Z,8.70
2018-05-06T03:59:03.505Z,8.70
2018-05-06T04:03:06.148Z,8.60
2018-05-06T04:07:09.663Z,8.60
2018-05-06T04:11:12.271Z,8.60
2018-05-06T04:15:15.674Z,8.50
2018-05-06T04:19:19.075Z,8.50
2018-05-06T04:23:22.488Z,8.50
2018-05-06T04:27:25.848Z,8.50
2018-05-06T04:31:28.561Z,8.50
2018-05-06T04:35:31.207Z,8.50
2018-05-06T04:39:33.905Z,8.50
2018-05-06T04:43:36.549Z,8.60
2018-05-06T04:47:39.917Z,8.60
2018-05-06T04:51:42.549Z,8.60
2018-05-06T04:55:45.189Z,8.70
2018-05-06T04:59:47.831Z,8.70
2018-05-06T05:03:50.492Z,8.70
2018-05-06T05:07:53.159Z,8.80
2018-05-06T05:11:55.806Z,8.80
2018-05-06T05:15:58.442Z,8.90
2018-05-06T05:20:01.087Z,8.90
2018-05-06T05:24:03.692Z,9.00
2018-05-06T05:28:06.327Z,9.00
2018-05-06T05:32:09.734Z,9.20
2018-05-06T05:36:13.199Z,9.30
2018-05-06T05:40:15.840Z,9.20
2018-05-06T05:44:19.212Z,9.50
2018-05-06T05:48:21.875Z,9.40
2018-05-06T05:52:24.512Z,9.60
2018-05-06T05:56:27.196Z,9.70
2018-05-06T06:00:30.608Z,9.90
2018-05-06T06:04:33.980Z,10.00
2018-05-06T06:08:36.624Z,10.00
2018-05-06T06:12:39.271Z,10.10
2018-05-06T06:16:41.926Z,10.20
2018-05-06T06:20:44.536Z,10.40
2018-05-06T06:24:47.173Z,10.40
2018-05-06T06:28:49.864Z,10.70
2018-05-06T06:32:52.607Z,11.10
2018-05-06T06:36:55.223Z,11.60
2018-05-06T06:40:58.593Z,13.60
2018-05-06T06:45:01.294Z,13.50
2018-05-06T06:49:03.944Z,15.60
2018-05-06T06:53:06.598Z,17.50
2018-05-06T06:57:10.019Z,21.00
2018-05-06T07:01:12.624Z,20.90
2018-05-06T07:05:15.271Z,22.40
2018-05-06T07:09:17.969Z,23.70
2018-05-06T07:13:21.388Z,25.70
2018-05-06T07:17:24.028Z,25.50
2018-05-06T07:21:26.645Z,26.40
2018-05-06T07:25:30.080Z,27.50
2018-05-06T07:29:32.824Z,27.40
2018-05-06T07:33:35.485Z,27.70
2018-05-06T07:37:38.186Z,28.00
2018-05-06T07:41:40.939Z,28.30
2018-05-06T07:45:43.609Z,28.70
2018-05-06T07:49:46.265Z,29.10
2018-05-06T07:53:48.977Z,29.30
2018-05-06T07:57:52.388Z,29.90
2018-05-06T08:01:55.819Z,30.10
2018-05-06T08:05:58.476Z,30.00
2018-05-06T08:10:01.907Z,30.60
2018-05-06T08:14:04.596Z,30.50
2018-05-06T08:18:07.325Z,30.80
2018-05-06T08:22:09.980Z,30.90
2018-05-06T08:26:12.672Z,31.00
2018-05-06T08:30:15.335Z,31.10
2018-05-06T08:34:18.772Z,31.20
2018-05-06T08:38:21.537Z,31.20
2018-05-06T08:42:24.212Z,31.30
2018-05-06T08:46:27.655Z,30.80
2018-05-06T08:50:30.344Z,30.70
2018-05-06T08:54:33.129Z,29.70
2018-05-06T08:58:35.768Z,28.70
2018-05-06T09:02:38.424Z,27.40
2018-05-06T09:06:41.103Z,26.50
2018-05-06T09:10:43.763Z,25.70
2018-05-06T09:14:47.659Z,24.60
2018-05-06T09:18:50.333Z,24.50
2018-05-06T09:22:53.805Z,23.70
2018-05-06T09:26:56.465Z,23.60
2018-05-06T09:30:59.879Z,23.20
2018-05-06T09:35:03.285Z,23.00
2018-05-06T09:39:06.692Z,22.80
2018-05-06T09:43:10.105Z,22.60
2018-05-06T09:47:12.742Z,22.50
2018-05-06T09:51:15.493Z,22.50
2018-05-06T09:55:18.155Z,22.40
2018-05-06T09:59:21.579Z,22.10
2018-05-06T10:03:24.243Z,22.10
2018-05-06T10:07:26.883Z,22.00
2018-05-06T10:11:29.520Z,21.90
2018-05-06T10:15:32.157Z,21.90
2018-05-06T10:19:34.759Z,21.80
2018-05-06T10:23:37.412Z,21.80
2018-05-06T10:27:40.056Z,21.80
2018-05-06T10:31:42.701Z,21.80
2018-05-06T10:35:45.342Z,21.80
2018-05-06T10:39:48.005Z,21.80
2018-05-06T10:43:51.404Z,21.80
2018-05-06T10:47:54.062Z,21.80
2018-05-06T10:51:56.718Z,21.80
2018-05-06T10:56:00.150Z,21.90
2018-05-06T11:00:02.771Z,21.90
2018-05-06T11:04:05.459Z,21.90
2018-05-06T11:08:08.225Z,21.90
2018-05-06T11:12:10.873Z,21.90
2018-05-06T11:16:13.517Z,22.00
2018-05-06T11:20:16.124Z,22.00
2018-05-06T11:24:18.777Z,22.00
2018-05-06T11:28:21.424Z,22.10
2018-05-06T11:32:24.064Z,22.10
2018-05-06T11:36:26.704Z,22.20
2018-05-06T11:40:30.193Z,22.30
2018-05-06T11:44:32.839Z,22.30
2018-05-06T11:48:35.476Z,22.40
2018-05-06T11:52:38.125Z,22.50
2018-05-06T11:56:40.767Z,22.60
2018-05-06T12:00:43.366Z,22.60
2018-05-06T12:04:46.772Z,22.80
2018-05-06T12:08:50.231Z,22.90
2018-05-06T12:12:52.907Z,22.80
2018-05-06T12:16:55.543Z,23.00
2018-05-06T12:20:58.203Z,23.10
2018-05-06T12:25:00.844Z,23.30
2018-05-06T12:29:04.248Z,23.60
2018-05-06T12:33:07.660Z,23.70
2018-05-06T12:37:11.060Z,24.00
2018-05-06T12:41:14.489Z,24.10
2018-05-06T12:45:17.136Z,24.10
2018-05-06T12:49:19.781Z,24.20
2018-05-06T12:53:22.578Z,24.30
2018-05-06T12:57:25.628Z,24.40
2018-05-06T13:01:28.319Z,24.40
2018-05-06T13:05:31.727Z,24.70
2018-05-06T13:09:35.128Z,24.90
2018-05-06T13:13:38.537Z,25.00
2018-05-06T13:17:41.943Z,25.10
2018-05-06T13:21:45.359Z,25.20
2018-05-06T13:25:47.995Z,25.10
2018-05-06T13:29:50.748Z,25.20
2018-05-06T13:33:53.389Z,25.40
2018-05-06T13:37:56.025Z,25.50
2018-05-06T13:41:58.814Z,25.60
2018-05-06T13:46:01.432Z,25.60
2018-05-06T13:50:04.072Z,25.70
2018-05-06T13:54:06.740Z,25.80
2018-05-06T13:58:09.370Z,25.90
2018-05-06T14:02:12.077Z,26.00
2018-05-06T14:06:14.683Z,26.00
2018-05-06T14:10:17.330Z,25.90
2018-05-06T14:14:19.965Z,25.90
2018-05-06T14:18:22.607Z,25.70
2018-05-06T14:22:25.248Z,25.60
2018-05-06T14:26:27.852Z,25.50
2018-05-06T14:30:30.492Z,25.50
2018-05-06T14:34:33.130Z,25.50
2018-05-06T14:38:35.772Z,25.50
2018-05-06T14:42:38.428Z,25.60
2018-05-06T14:46:52.786Z,25.70
2018-05-06T14:50:56.205Z,25.70
2018-05-06T14:54:58.839Z,25.70
2018-05-06T14:59:02.702Z,25.70
2018-05-06T15:03:05.359Z,25.70
2018-05-06T15:07:07.959Z,25.80
2018-05-06T15:11:11.370Z,25.80
2018-05-06T15:15:14.008Z,25.70
2018-05-06T15:19:16.655Z,25.70
2018-05-06T15:23:20.135Z,25.70
2018-05-06T15:27:22.735Z,25.60
2018-05-06T15:31:26.139Z,25.70
2018-05-06T15:35:28.781Z,25.60
2018-05-06T15:39:31.456Z,25.70
2018-05-06T15:43:34.163Z,25.80
2018-05-06T15:47:36.762Z,25.70
2018-05-06T15:51:39.482Z,25.70
2018-05-06T15:55:42.189Z,25.70
2018-05-06T15:59:45.394Z,25.60
2018-05-06T16:03:59.948Z,25.60
2018-05-06T16:08:03.316Z,25.50
2018-05-06T16:12:05.988Z,25.50
2018-05-06T16:16:08.624Z,25.50
2018-05-06T16:20:11.263Z,25.40
2018-05-06T16:24:13.902Z,25.40
2018-05-06T16:28:16.512Z,25.40
2018-05-06T16:32:19.215Z,25.40
2018-05-06T16:36:21.865Z,25.40
2018-05-06T16:40:24.565Z,25.40
2018-05-06T16:44:28.017Z,25.30
2018-05-06T16:48:30.620Z,25.20
2018-05-06T16:52:33.262Z,25.20
2018-05-06T16:56:35.910Z,25.20
2018-05-06T17:00:38.556Z,25.10
2018-05-06T17:04:41.207Z,25.00
2018-05-06T17:08:44.578Z,24.90
2018-05-06T17:12:47.268Z,24.80
2018-05-06T17:16:49.887Z,24.70
2018-05-06T17:20:52.529Z,24.60
2018-05-06T17:24:55.164Z,24.50
2018-05-06T17:28:58.543Z,24.30
2018-05-06T17:33:01.186Z,24.20
2018-05-06T17:37:03.853Z,24.20
2018-05-06T17:41:07.275Z,23.80
2018-05-06T17:45:09.963Z,23.80
2018-05-06T17:49:12.731Z,23.70
2018-05-06T17:53:16.156Z,23.40
2018-05-06T17:57:19.588Z,23.20
2018-05-06T18:01:22.258Z,23.20
2018-05-06T18:05:24.916Z,23.10
2018-05-06T18:09:27.544Z,23.00
2018-05-06T18:13:30.234Z,22.80
2018-05-06T18:17:32.927Z,22.70
2018-05-06T18:21:35.571Z,22.50
2018-05-06T18:25:38.226Z,22.40
2018-05-06T18:29:40.836Z,22.20
2018-05-06T18:33:43.488Z,22.10
2018-05-06T18:37:46.129Z,22.00
2018-05-06T18:41:49.537Z,21.70
2018-05-06T18:45:52.949Z,21.50
2018-05-06T18:49:56.320Z,21.40
2018-05-06T18:53:58.968Z,21.30
2018-05-06T18:58:01.624Z,21.30
2018-05-06T19:02:05.036Z,21.10
2018-05-06T19:06:08.455Z,20.90
2018-05-06T19:10:11.827Z,20.80
2018-05-06T19:14:14.472Z,20.70
2018-05-06T19:18:17.111Z,20.60
2018-05-06T19:22:19.760Z,20.50
2018-05-06T19:26:22.453Z,20.40
2018-05-06T19:30:25.051Z,20.30
2018-05-06T19:34:27.696Z,20.10
2018-05-06T19:38:30.349Z,20.00
2018-05-06T19:42:33.076Z,19.80
2018-05-06T19:46:35.661Z,19.70
2018-05-06T19:50:38.261Z,19.60
2018-05-06T19:54:40.901Z,19.40
2018-05-06T19:58:43.548Z,19.40
2018-05-06T20:02:46.194Z,19.20
2018-05-06T20:06:49.596Z,19.00
2018-05-06T20:10:52.245Z,18.90
2018-05-06T20:14:55.692Z,18.70
2018-05-06T20:18:59.095Z,18.60
2018-05-06T20:23:01.748Z,18.50
2018-05-06T20:27:04.393Z,18.40
2018-05-06T20:31:07.759Z,18.10
2018-05-06T20:35:10.405Z,18.10
2018-05-06T20:39:13.050Z,18.00
2018-05-06T20:43:15.700Z,17.90
2018-05-06T20:47:18.373Z,17.80
2018-05-06T20:51:20.982Z,17.80
2018-05-06T20:55:23.698Z,17.70
2018-05-06T20:59:26.312Z,17.60
2018-05-06T21:03:29.735Z,17.50
2018-05-06T21:07:32.336Z,17.40
2018-05-06T21:11:34.979Z,17.40
2018-05-06T21:15:37.619Z,17.30
2018-05-06T21:19:40.293Z,17.20
2018-05-06T21:23:42.940Z,17.20
2018-05-06T21:27:45.640Z,17.10
2018-05-06T21:31:48.208Z,17.00
2018-05-06T21:35:50.844Z,16.90
2018-05-06T21:39:53.483Z,16.80
2018-05-06T21:43:56.123Z,16.70
2018-05-06T21:47:58.723Z,16.60
2018-05-06T21:52:01.368Z,16.50
2018-05-06T21:56:04.785Z,16.40
2018-05-06T22:00:08.248Z,16.40
2018-05-06T22:04:10.918Z,16.30
2018-05-06T22:08:13.567Z,16.30
2018-05-06T22:12:16.986Z,16.10
2018-05-06T22:16:19.696Z,16.10
2018-05-06T22:20:22.335Z,16.10
2018-05-06T22:24:24.939Z,16.00
2018-05-06T22:28:27.580Z,15.90
2018-05-06T22:32:30.280Z,15.90
2018-05-06T22:36:32.924Z,15.70
2018-05-06T22:40:35.559Z,15.60
2018-05-06T22:44:38.165Z,15.50
2018-05-06T22:48:41.575Z,15.30
2018-05-06T22:56:53.940Z,15.10
2018-05-06T23:00:56.579Z,15.10
2018-05-06T23:04:59.232Z,15.00
2018-05-06T23:09:01.873Z,15.00
2018-05-06T23:13:04.512Z,14.90
2018-05-06T23:17:07.173Z,14.90
2018-05-06T23:21:10.540Z,14.80
2018-05-06T23:25:13.255Z,14.70
2018-05-06T23:29:16.680Z,14.70
2018-05-06T23:33:19.328Z,14.70
2018-05-06T23:37:21.974Z,14.70
2018-05-06T23:41:24.652Z,14.60
2018-05-06T23:45:27.304Z,14.60
2018-05-06T23:49:30.017Z,14.50
2018-05-06T23:53:32.771Z,14.40
2018-05-06T23:57:35.509Z,14.40
